createdAt,value
2023-04-01T00:00:30.594Z,87460.00
2023-04-01T00:01:30.664Z,87454.00
2023-04-01T00:02:30.805Z,87454.00
2023-04-01T00:03:30.974Z,87454.00
2023-04-01T00:04:31.841Z,87452.00
2023-04-01T00:05:31.322Z,87454.00
2023-04-01T00:06:31.124Z,87454.00
2023-04-01T00:07:31.225Z,87452.00
2023-04-01T00:08:31.345Z,87452.00
2023-04-01T00:09:31.417Z,87446.00
2023-04-01T00:10:31.557Z,87446.00
2023-04-01T00:11:31.545Z,87448.00
2023-04-01T00:12:31.602Z,87448.00
2023-04-01T00:13:31.673Z,87448.00
2023-04-01T00:14:31.715Z,87448.00
2023-04-01T00:15:31.887Z,87448.00
2023-04-01T00:16:31.958Z,87442.00
2023-04-01T00:17:32.034Z,87444.00
2023-04-01T00:18:32.153Z,87446.00
2023-04-01T00:19:32.205Z,87444.00
2023-04-01T00:20:32.272Z,87446.00
2023-04-01T00:21:32.392Z,87442.00
2023-04-01T00:22:32.450Z,87438.00
2023-04-01T00:23:32.517Z,87436.00
2023-04-01T00:24:32.621Z,87434.00
2023-04-01T00:25:33.067Z,87440.00
2023-04-01T00:26:32.791Z,87440.00
2023-04-01T00:27:32.940Z,87440.00
2023-04-01T00:28:32.998Z,87442.00
2023-04-01T00:29:33.095Z,87442.00
2023-04-01T00:30:33.174Z,87442.00
2023-04-01T00:31:33.303Z,87444.00
2023-04-01T00:32:33.367Z,87444.00
2023-04-01T00:33:33.457Z,87444.00
2023-04-01T00:34:33.592Z,87446.00
2023-04-01T00:35:33.930Z,87444.00
2023-04-01T00:36:33.797Z,87450.00
2023-04-01T00:37:33.786Z,87452.00
2023-04-01T00:38:33.914Z,87454.00
2023-04-01T00:39:33.875Z,87450.00
2023-04-01T00:40:33.926Z,87448.00
2023-04-01T00:41:33.984Z,87450.00
2023-04-01T00:42:34.047Z,87446.00
2023-04-01T00:43:34.102Z,87450.00
2023-04-01T00:44:34.172Z,87446.00
2023-04-01T00:45:34.374Z,87442.00
2023-04-01T00:46:34.292Z,87442.00
2023-04-01T00:47:34.344Z,87444.00
2023-04-01T00:48:34.424Z,87438.00
2023-04-01T00:49:34.505Z,87438.00
2023-04-01T00:50:34.576Z,87438.00
2023-04-01T00:51:34.638Z,87440.00
2023-04-01T00:52:34.767Z,87442.00
2023-04-01T00:53:34.808Z,87444.00
2023-04-01T00:54:34.896Z,87448.00
2023-04-01T00:55:34.930Z,87446.00
2023-04-01T00:56:35.023Z,87446.00
2023-04-01T00:57:35.136Z,87442.00
2023-04-01T00:58:35.313Z,87442.00
2023-04-01T00:59:35.358Z,87446.00
2023-04-01T01:00:35.465Z,87450.00
2023-04-01T01:01:35.519Z,87450.00
2023-04-01T01:02:35.649Z,87450.00
2023-04-01T01:03:35.591Z,87448.00
2023-04-01T01:04:35.655Z,87444.00
2023-04-01T01:05:48.139Z,87446.00
2023-04-01T01:06:36.760Z,87448.00
2023-04-01T01:07:35.800Z,87450.00
2023-04-01T01:08:35.836Z,87454.00
2023-04-01T01:09:35.903Z,87450.00
2023-04-01T01:10:35.948Z,87450.00
2023-04-01T01:11:42.543Z,87450.00
2023-04-01T01:12:37.050Z,87448.00
2023-04-01T01:13:36.079Z,87448.00
2023-04-01T01:14:36.126Z,87444.00
2023-04-01T01:15:36.151Z,87444.00
2023-04-01T01:16:36.257Z,87446.00
2023-04-01T01:17:36.257Z,87444.00
2023-04-01T01:18:36.277Z,87442.00
2023-04-01T01:19:36.327Z,87442.00
2023-04-01T01:20:36.368Z,87438.00
2023-04-01T01:21:36.412Z,87442.00
2023-04-01T01:22:36.448Z,87442.00
2023-04-01T01:23:36.511Z,87438.00
2023-04-01T01:24:36.541Z,87436.00
2023-04-01T01:25:36.580Z,87434.00
2023-04-01T01:26:36.617Z,87436.00
2023-04-01T01:27:36.662Z,87430.00
2023-04-01T01:28:36.802Z,87428.00
2023-04-01T01:29:36.810Z,87428.00
2023-04-01T01:30:36.908Z,87430.00
2023-04-01T01:31:36.968Z,87428.00
2023-04-01T01:32:37.203Z,87428.00
2023-04-01T01:33:37.200Z,87428.00
2023-04-01T01:34:37.210Z,87422.00
2023-04-01T01:35:37.273Z,87422.00
2023-04-01T01:36:37.323Z,87419.00
2023-04-01T01:37:37.402Z,87417.00
2023-04-01T01:38:37.472Z,87415.00
2023-04-01T01:39:37.561Z,87411.00
2023-04-01T01:40:37.641Z,87407.00
2023-04-01T01:41:37.709Z,87405.00
2023-04-01T01:42:37.777Z,87403.00
2023-04-01T01:43:37.851Z,87403.00
2023-04-01T01:44:37.935Z,87405.00
2023-04-01T01:45:37.971Z,87405.00
2023-04-01T01:46:38.105Z,87407.00
2023-04-01T01:47:38.165Z,87405.00
2023-04-01T01:48:38.189Z,87403.00
2023-04-01T01:49:38.320Z,87399.00
2023-04-01T01:50:38.381Z,87401.00
2023-04-01T01:51:38.472Z,87399.00
2023-04-01T01:52:38.565Z,87399.00
2023-04-01T01:53:38.644Z,87399.00
2023-04-01T01:54:38.719Z,87399.00
2023-04-01T01:55:38.829Z,87399.00
2023-04-01T01:56:38.840Z,87401.00
2023-04-01T01:57:39.044Z,87401.00
2023-04-01T01:58:39.070Z,87397.00
2023-04-01T01:59:39.150Z,87397.00
2023-04-01T02:00:39.225Z,87395.00
2023-04-01T02:01:39.367Z,87393.00
2023-04-01T02:02:39.364Z,87395.00
2023-04-01T02:03:39.502Z,87395.00
2023-04-01T02:04:39.589Z,87391.00
2023-04-01T02:05:39.656Z,87393.00
2023-04-01T02:06:39.732Z,87393.00
2023-04-01T02:07:39.794Z,87393.00
2023-04-01T02:08:39.931Z,87395.00
2023-04-01T02:09:39.932Z,87393.00
2023-04-01T02:10:40.045Z,87391.00
2023-04-01T02:11:40.093Z,87391.00
2023-04-01T02:12:40.168Z,87391.00
2023-04-01T02:13:40.230Z,87393.00
2023-04-01T02:14:40.283Z,87397.00
2023-04-01T02:15:40.860Z,87399.00
2023-04-01T02:16:40.397Z,87401.00
2023-04-01T02:17:40.457Z,87405.00
2023-04-01T02:18:40.538Z,87403.00
2023-04-01T02:19:40.607Z,87403.00
2023-04-01T02:20:40.663Z,87401.00
2023-04-01T02:21:40.751Z,87401.00
2023-04-01T02:22:40.859Z,87399.00
2023-04-01T02:23:40.942Z,87403.00
2023-04-01T02:24:41.044Z,87401.00
2023-04-01T02:25:41.133Z,87401.00
2023-04-01T02:26:41.218Z,87401.00
2023-04-01T02:27:41.268Z,87401.00
2023-04-01T02:28:41.286Z,87401.00
2023-04-01T02:29:41.325Z,87397.00
2023-04-01T02:30:41.420Z,87395.00
2023-04-01T02:31:41.485Z,87397.00
2023-04-01T02:32:41.473Z,87395.00
2023-04-01T02:33:41.526Z,87399.00
2023-04-01T02:34:41.603Z,87395.00
2023-04-01T02:35:41.642Z,87395.00
2023-04-01T02:36:41.675Z,87395.00
2023-04-01T02:37:41.712Z,87391.00
2023-04-01T02:38:41.767Z,87395.00
2023-04-01T02:39:41.898Z,87395.00
2023-04-01T02:40:41.967Z,87397.00
2023-04-01T02:41:42.082Z,87399.00
2023-04-01T02:42:42.254Z,87401.00
2023-04-01T02:43:42.319Z,87399.00
2023-04-01T02:44:42.408Z,87399.00
2023-04-01T02:45:42.521Z,87407.00
2023-04-01T02:46:42.666Z,87405.00
2023-04-01T02:47:42.705Z,87407.00
2023-04-01T02:48:42.825Z,87407.00
2023-04-01T02:49:42.863Z,87405.00
2023-04-01T02:50:43.046Z,87405.00
2023-04-01T02:51:43.144Z,87403.00
2023-04-01T02:52:43.220Z,87405.00
2023-04-01T02:53:43.301Z,87403.00
2023-04-01T02:54:43.401Z,87403.00
2023-04-01T02:55:43.532Z,87403.00
2023-04-01T02:56:43.636Z,87405.00
2023-04-01T02:57:43.728Z,87407.00
2023-04-01T02:58:43.859Z,87411.00
2023-04-01T02:59:43.926Z,87413.00
2023-04-01T03:00:43.988Z,87413.00
2023-04-01T03:01:44.859Z,87415.00
2023-04-01T03:02:44.124Z,87417.00
2023-04-01T03:03:45.162Z,87415.00
2023-04-01T03:04:44.121Z,87415.00
2023-04-01T03:05:44.179Z,87419.00
2023-04-01T03:06:44.227Z,87422.00
2023-04-01T03:07:44.292Z,87420.00
2023-04-01T03:08:44.339Z,87420.00
2023-04-01T03:09:44.409Z,87420.00
2023-04-01T03:10:44.418Z,87420.00
2023-04-01T03:11:44.458Z,87420.00
2023-04-01T03:12:44.529Z,87420.00
2023-04-01T03:13:44.545Z,87422.00
2023-04-01T03:14:44.593Z,87424.00
2023-04-01T03:15:44.694Z,87426.00
2023-04-01T03:16:44.715Z,87430.00
2023-04-01T03:17:44.762Z,87428.00
2023-04-01T03:18:44.780Z,87430.00
2023-04-01T03:19:45.014Z,87432.00
2023-04-01T03:20:45.800Z,87434.00
2023-04-01T03:21:44.998Z,87438.00
2023-04-01T03:22:45.131Z,87442.00
2023-04-01T03:23:45.188Z,87444.00
2023-04-01T03:24:45.294Z,87444.00
2023-04-01T03:25:45.413Z,87446.00
2023-04-01T03:26:45.611Z,87444.00
2023-04-01T03:27:45.586Z,87442.00
2023-04-01T03:28:45.631Z,87440.00
2023-04-01T03:29:45.744Z,87444.00
2023-04-01T03:30:45.803Z,87446.00
2023-04-01T03:31:45.907Z,87452.00
2023-04-01T03:32:46.897Z,87450.00
2023-04-01T03:33:45.928Z,87452.00
2023-04-01T03:34:46.812Z,87448.00
2023-04-01T03:35:46.022Z,87448.00
2023-04-01T03:36:46.201Z,87448.00
2023-04-01T03:37:46.126Z,87450.00
2023-04-01T03:38:46.230Z,87452.00
2023-04-01T03:39:46.338Z,87456.00
2023-04-01T03:40:46.495Z,87456.00
2023-04-01T03:41:46.478Z,87454.00
2023-04-01T03:42:46.566Z,87450.00
2023-04-01T03:43:46.707Z,87448.00
2023-04-01T03:44:46.752Z,87442.00
2023-04-01T03:45:46.923Z,87440.00
2023-04-01T03:46:46.991Z,87438.00
2023-04-01T03:47:47.080Z,87442.00
2023-04-01T03:48:47.081Z,87446.00
2023-04-01T03:49:47.206Z,87446.00
2023-04-01T03:50:47.272Z,87450.00
2023-04-01T03:51:47.390Z,87448.00
2023-04-01T03:52:47.464Z,87444.00
2023-04-01T03:53:47.580Z,87442.00
2023-04-01T03:54:47.656Z,87442.00
2023-04-01T03:55:47.781Z,87440.00
2023-04-01T03:56:47.871Z,87442.00
2023-04-01T03:57:47.964Z,87442.00
2023-04-01T03:58:48.028Z,87446.00
2023-04-01T03:59:48.144Z,87446.00
2023-04-01T04:00:48.222Z,87448.00
2023-04-01T04:01:48.285Z,87446.00
2023-04-01T04:02:48.511Z,87442.00
2023-04-01T04:03:48.561Z,87442.00
2023-04-01T04:04:48.640Z,87438.00
2023-04-01T04:05:48.670Z,87440.00
2023-04-01T04:06:48.749Z,87436.00
2023-04-01T04:07:48.845Z,87434.00
2023-04-01T04:08:48.942Z,87436.00
2023-04-01T04:09:49.050Z,87436.00
2023-04-01T04:10:49.134Z,87436.00
2023-04-01T04:11:49.269Z,87434.00
2023-04-01T04:12:49.372Z,87434.00
2023-04-01T04:13:49.502Z,87434.00
2023-04-01T04:14:50.328Z,87436.00
2023-04-01T04:15:49.701Z,87438.00
2023-04-01T04:16:50.301Z,87438.00
2023-04-01T04:17:49.905Z,87438.00
2023-04-01T04:18:49.930Z,87436.00
2023-04-01T04:19:50.005Z,87438.00
2023-04-01T04:20:50.088Z,87438.00
2023-04-01T04:21:50.172Z,87444.00
2023-04-01T04:22:50.328Z,87446.00
2023-04-01T04:23:50.438Z,87446.00
2023-04-01T04:24:51.322Z,87446.00
2023-04-01T04:25:50.643Z,87448.00
2023-04-01T04:26:50.730Z,87448.00
2023-04-01T04:27:50.784Z,87452.00
2023-04-01T04:28:50.854Z,87452.00
2023-04-01T04:29:50.970Z,87454.00
2023-04-01T04:30:51.047Z,87454.00
2023-04-01T04:31:51.182Z,87454.00
2023-04-01T04:32:51.248Z,87458.00
2023-04-01T04:33:51.270Z,87458.00
2023-04-01T04:34:51.316Z,87456.00
2023-04-01T04:35:51.393Z,87458.00
2023-04-01T04:36:51.470Z,87460.00
2023-04-01T04:37:51.526Z,87462.00
2023-04-01T04:38:51.681Z,87462.00
2023-04-01T04:39:51.677Z,87460.00
2023-04-01T04:40:51.743Z,87458.00
2023-04-01T04:41:52.441Z,87460.00
2023-04-01T04:42:51.968Z,87456.00
2023-04-01T04:43:52.093Z,87456.00
2023-04-01T04:44:52.166Z,87454.00
2023-04-01T04:45:52.223Z,87456.00
2023-04-01T04:46:52.396Z,87458.00
2023-04-01T04:47:53.348Z,87462.00
2023-04-01T04:48:52.498Z,87464.00
2023-04-01T04:49:52.581Z,87464.00
2023-04-01T04:50:52.700Z,87466.00
2023-04-01T04:51:52.803Z,87475.00
2023-04-01T04:52:52.876Z,87480.00
2023-04-01T04:53:53.369Z,87479.00
2023-04-01T04:54:53.041Z,87482.00
2023-04-01T04:55:53.126Z,87482.00
2023-04-01T04:56:53.383Z,87482.00
2023-04-01T04:57:53.258Z,87484.00
2023-04-01T04:58:53.344Z,87488.00
2023-04-01T04:59:53.421Z,87488.00
2023-04-01T05:00:53.516Z,87484.00
2023-04-01T05:01:53.590Z,87482.00
2023-04-01T05:02:53.817Z,87480.00
2023-04-01T05:03:53.796Z,87477.00
2023-04-01T05:04:54.320Z,87477.00
2023-04-01T05:05:54.812Z,87475.00
2023-04-01T05:06:53.948Z,87473.00
2023-04-01T05:07:54.053Z,87473.00
2023-04-01T05:08:54.208Z,87466.00
2023-04-01T05:09:54.369Z,87475.00
2023-04-01T05:10:54.320Z,87477.00
2023-04-01T05:11:54.370Z,87482.00
2023-04-01T05:12:54.456Z,87486.00
2023-04-01T05:13:55.316Z,87490.00
2023-04-01T05:14:54.627Z,87492.00
2023-04-01T05:15:54.681Z,87496.00
2023-04-01T05:16:54.873Z,87496.00
2023-04-01T05:17:55.002Z,87494.00
2023-04-01T05:18:54.969Z,87488.00
2023-04-01T05:19:55.056Z,87490.00
2023-04-01T05:20:55.156Z,87490.00
2023-04-01T05:21:55.270Z,87492.00
2023-04-01T05:22:55.361Z,87492.00
2023-04-01T05:23:55.433Z,87492.00
2023-04-01T05:24:55.527Z,87492.00
2023-04-01T05:25:55.599Z,87492.00
2023-04-01T05:26:56.969Z,87490.00
2023-04-01T05:27:56.319Z,87492.00
2023-04-01T05:28:55.896Z,87492.00
2023-04-01T05:29:55.992Z,87492.00
2023-04-01T05:30:56.094Z,87492.00
2023-04-01T05:31:56.125Z,87494.00
2023-04-01T05:32:56.249Z,87496.00
2023-04-01T05:33:56.257Z,87496.00
2023-04-01T05:34:56.276Z,87496.00
2023-04-01T05:35:56.333Z,87494.00
2023-04-01T05:36:56.351Z,87494.00
2023-04-01T05:37:56.389Z,87496.00
2023-04-01T05:38:56.515Z,87504.00
2023-04-01T05:39:56.441Z,87506.00
2023-04-01T05:40:56.477Z,87510.00
2023-04-01T05:41:56.497Z,87512.00
2023-04-01T05:42:56.556Z,87512.00
2023-04-01T05:43:56.597Z,87510.00
2023-04-01T05:44:56.628Z,87508.00
2023-04-01T05:45:56.742Z,87506.00
2023-04-01T05:46:56.771Z,87508.00
2023-04-01T05:47:56.925Z,87506.00
2023-04-01T05:48:56.968Z,87504.00
2023-04-01T05:49:57.057Z,87506.00
2023-04-01T05:50:57.135Z,87504.00
2023-04-01T05:51:57.224Z,87504.00
2023-04-01T05:52:57.321Z,87502.00
2023-04-01T05:53:57.363Z,87502.00
2023-04-01T05:54:57.417Z,87498.00
2023-04-01T05:55:57.468Z,87500.00
2023-04-01T05:56:57.588Z,87502.00
2023-04-01T05:57:57.633Z,87498.00
2023-04-01T05:58:57.704Z,87498.00
2023-04-01T05:59:57.766Z,87498.00
2023-04-01T06:01:08.768Z,87496.00
2023-04-01T06:01:59.842Z,87498.00
2023-04-01T06:02:57.933Z,87498.00
2023-04-01T06:03:57.928Z,87498.00
2023-04-01T06:04:57.985Z,87498.00
2023-04-01T06:05:57.906Z,87500.00
2023-04-01T06:06:57.934Z,87500.00
2023-04-01T06:07:58.018Z,87498.00
2023-04-01T06:08:58.093Z,87500.00
2023-04-01T06:09:58.172Z,87496.00
2023-04-01T06:10:58.262Z,87498.00
2023-04-01T06:11:58.387Z,87498.00
2023-04-01T06:12:58.405Z,87494.00
2023-04-01T06:13:58.483Z,87496.00
2023-04-01T06:14:58.519Z,87500.00
2023-04-01T06:15:58.586Z,87498.00
2023-04-01T06:16:58.590Z,87492.00
2023-04-01T06:17:58.764Z,87492.00
2023-04-01T06:18:58.762Z,87494.00
2023-04-01T06:19:58.825Z,87496.00
2023-04-01T06:20:58.913Z,87496.00
2023-04-01T06:21:58.971Z,87500.00
2023-04-01T06:22:59.051Z,87498.00
2023-04-01T06:23:59.094Z,87502.00
2023-04-01T06:24:59.819Z,87502.00
2023-04-01T06:25:59.229Z,87500.00
2023-04-01T06:26:59.230Z,87494.00
2023-04-01T06:27:59.275Z,87498.00
2023-04-01T06:28:59.320Z,87496.00
2023-04-01T06:29:59.330Z,87496.00
2023-04-01T06:30:59.379Z,87496.00
2023-04-01T06:31:59.394Z,87496.00
2023-04-01T06:32:59.445Z,87498.00
2023-04-01T06:33:59.410Z,87502.00
2023-04-01T06:34:59.423Z,87504.00
2023-04-01T06:35:59.529Z,87504.00
2023-04-01T06:36:59.502Z,87508.00
2023-04-01T06:37:59.493Z,87508.00
2023-04-01T06:38:59.495Z,87508.00
2023-04-01T06:39:59.545Z,87506.00
2023-04-01T06:40:59.537Z,87508.00
2023-04-01T06:41:59.568Z,87508.00
2023-04-01T06:42:59.652Z,87508.00
2023-04-01T06:43:59.744Z,87510.00
2023-04-01T06:44:59.754Z,87512.00
2023-04-01T06:46:00.840Z,87512.00
2023-04-01T06:47:00.837Z,87514.00
2023-04-01T06:47:59.961Z,87514.00
2023-04-01T06:48:59.965Z,87514.00
2023-04-01T06:50:00.008Z,87516.00
2023-04-01T06:51:00.079Z,87514.00
2023-04-01T06:52:00.129Z,87516.00
2023-04-01T06:53:00.166Z,87514.00
2023-04-01T06:54:00.183Z,87520.00
2023-04-01T06:55:00.260Z,87520.00
2023-04-01T06:56:00.298Z,87518.00
2023-04-01T06:57:00.350Z,87516.00
2023-04-01T06:58:00.416Z,87518.00
2023-04-01T06:59:00.530Z,87514.00
2023-04-01T07:00:00.420Z,87516.00
2023-04-01T07:01:00.467Z,87514.00
2023-04-01T07:02:00.513Z,87506.00
2023-04-01T07:03:00.626Z,87504.00
2023-04-01T07:04:00.694Z,87498.00
2023-04-01T07:05:00.816Z,87498.00
2023-04-01T07:06:00.698Z,87498.00
2023-04-01T07:07:00.796Z,87498.00
2023-04-01T07:08:00.827Z,87498.00
2023-04-01T07:09:01.791Z,87498.00
2023-04-01T07:10:00.869Z,87496.00
2023-04-01T07:11:00.889Z,87498.00
2023-04-01T07:12:00.888Z,87494.00
2023-04-01T07:13:00.896Z,87492.00
2023-04-01T07:14:00.963Z,87492.00
2023-04-01T07:15:00.914Z,87490.00
2023-04-01T07:16:00.880Z,87488.00
2023-04-01T07:17:00.958Z,87486.00
2023-04-01T07:18:00.895Z,87484.00
2023-04-01T07:19:00.871Z,87484.00
2023-04-01T07:20:00.901Z,87480.00
2023-04-01T07:21:00.866Z,87486.00
2023-04-01T07:22:00.853Z,87484.00
2023-04-01T07:23:00.852Z,87484.00
2023-04-01T07:24:00.863Z,87480.00
2023-04-01T07:25:00.855Z,87484.00
2023-04-01T07:26:00.880Z,87480.00
2023-04-01T07:27:00.849Z,87482.00
2023-04-01T07:28:00.842Z,87479.00
2023-04-01T07:29:00.840Z,87480.00
2023-04-01T07:30:00.837Z,87477.00
2023-04-01T07:31:00.845Z,87475.00
2023-04-01T07:32:00.813Z,87477.00
2023-04-01T07:33:00.814Z,87477.00
2023-04-01T07:34:00.838Z,87473.00
2023-04-01T07:35:00.853Z,87475.00
2023-04-01T07:36:00.854Z,87473.00
2023-04-01T07:37:00.785Z,87475.00
2023-04-01T07:38:00.803Z,87473.00
2023-04-01T07:39:00.805Z,87475.00
2023-04-01T07:40:00.765Z,87477.00
2023-04-01T07:41:00.765Z,87477.00
2023-04-01T07:42:00.764Z,87475.00
2023-04-01T07:43:00.819Z,87477.00
2023-04-01T07:44:00.856Z,87475.00
2023-04-01T07:45:00.891Z,87475.00
2023-04-01T07:46:00.973Z,87475.00
2023-04-01T07:47:00.968Z,87466.00
2023-04-01T07:48:01.004Z,87473.00
2023-04-01T07:49:00.967Z,87473.00
2023-04-01T07:50:01.011Z,87464.00
2023-04-01T07:51:00.998Z,87466.00
2023-04-01T07:52:00.991Z,87466.00
2023-04-01T07:53:00.975Z,87466.00
2023-04-01T07:54:00.945Z,87475.00
2023-04-01T07:55:00.912Z,87475.00
2023-04-01T07:56:00.925Z,87477.00
2023-04-01T07:57:00.958Z,87477.00
2023-04-01T07:58:00.957Z,87477.00
2023-04-01T07:59:01.342Z,87475.00
2023-04-01T08:00:00.904Z,87473.00
2023-04-01T08:01:00.868Z,87466.00
2023-04-01T08:02:00.868Z,87475.00
2023-04-01T08:03:00.964Z,87473.00
2023-04-01T08:04:01.085Z,87475.00
2023-04-01T08:05:00.947Z,87475.00
2023-04-01T08:06:00.957Z,87479.00
2023-04-01T08:07:00.872Z,87475.00
2023-04-01T08:08:00.874Z,87473.00
2023-04-01T08:09:00.846Z,87473.00
2023-04-01T08:10:00.882Z,87477.00
2023-04-01T08:11:00.906Z,87475.00
2023-04-01T08:12:00.846Z,87475.00
2023-04-01T08:13:00.885Z,87477.00
2023-04-01T08:14:00.889Z,87473.00
2023-04-01T08:15:00.878Z,87475.00
2023-04-01T08:16:00.898Z,87475.00
2023-04-01T08:17:00.805Z,87466.00
2023-04-01T08:18:00.806Z,87464.00
2023-04-01T08:19:00.750Z,87462.00
2023-04-01T08:20:00.763Z,87464.00
2023-04-01T08:21:00.724Z,87462.00
2023-04-01T08:22:00.721Z,87462.00
2023-04-01T08:23:00.648Z,87466.00
2023-04-01T08:24:00.652Z,87462.00
2023-04-01T08:25:00.572Z,87464.00
2023-04-01T08:26:00.566Z,87464.00
2023-04-01T08:27:00.584Z,87466.00
2023-04-01T08:28:00.560Z,87464.00
2023-04-01T08:29:00.614Z,87460.00
2023-04-01T08:30:00.570Z,87466.00
2023-04-01T08:31:00.559Z,87466.00
2023-04-01T08:32:01.401Z,87464.00
2023-04-01T08:33:00.599Z,87464.00
2023-04-01T08:34:00.564Z,87464.00
2023-04-01T08:35:00.502Z,87473.00
2023-04-01T08:36:00.582Z,87466.00
2023-04-01T08:37:00.503Z,87464.00
2023-04-01T08:38:00.459Z,87464.00
2023-04-01T08:39:00.425Z,87473.00
2023-04-01T08:40:00.393Z,87462.00
2023-04-01T08:41:00.310Z,87462.00
2023-04-01T08:42:00.252Z,87464.00
2023-04-01T08:43:00.200Z,87462.00
2023-04-01T08:44:00.215Z,87464.00
2023-04-01T08:45:00.082Z,87466.00
2023-04-01T08:46:00.084Z,87462.00
2023-04-01T08:47:00.011Z,87458.00
2023-04-01T08:47:59.951Z,87460.00
2023-04-01T08:48:59.855Z,87460.00
2023-04-01T08:49:59.870Z,87462.00
2023-04-01T08:50:59.864Z,87460.00
2023-04-01T08:51:59.834Z,87460.00
2023-04-01T08:52:59.809Z,87460.00
2023-04-01T08:53:59.803Z,87460.00
2023-04-01T08:54:59.818Z,87458.00
2023-04-01T08:55:59.778Z,87462.00
2023-04-01T08:56:59.816Z,87462.00
2023-04-01T08:57:59.676Z,87464.00
2023-04-01T08:58:59.672Z,87466.00
2023-04-01T08:59:59.643Z,87462.00
2023-04-01T09:00:59.623Z,87462.00
2023-04-01T09:01:59.638Z,87462.00
2023-04-01T09:02:59.708Z,87456.00
2023-04-01T09:03:59.743Z,87460.00
2023-04-01T09:04:59.681Z,87460.00
2023-04-01T09:05:59.658Z,87460.00
2023-04-01T09:06:59.650Z,87460.00
2023-04-01T09:07:59.638Z,87462.00
2023-04-01T09:08:59.604Z,87462.00
2023-04-01T09:09:59.619Z,87462.00
2023-04-01T09:10:59.622Z,87464.00
2023-04-01T09:11:59.562Z,87460.00
2023-04-01T09:12:59.477Z,87464.00
2023-04-01T09:13:59.466Z,87464.00
2023-04-01T09:14:59.477Z,87473.00
2023-04-01T09:16:00.378Z,87466.00
2023-04-01T09:16:59.396Z,87466.00
2023-04-01T09:17:59.407Z,87473.00
2023-04-01T09:18:59.358Z,87464.00
2023-04-01T09:19:59.353Z,87466.00
2023-04-01T09:20:59.307Z,87473.00
2023-04-01T09:21:59.294Z,87473.00
2023-04-01T09:22:59.261Z,87475.00
2023-04-01T09:23:59.237Z,87473.00
2023-04-01T09:24:59.370Z,87475.00
2023-04-01T09:25:59.863Z,87477.00
2023-04-01T09:26:59.787Z,87477.00
2023-04-01T09:27:59.063Z,87477.00
2023-04-01T09:28:59.050Z,87473.00
2023-04-01T09:29:59.048Z,87473.00
2023-04-01T09:30:59.891Z,87475.00
2023-04-01T09:31:58.969Z,87475.00
2023-04-01T09:32:58.982Z,87475.00
2023-04-01T09:33:59.378Z,87479.00
2023-04-01T09:34:58.839Z,87480.00
2023-04-01T09:35:58.819Z,87480.00
2023-04-01T09:37:00.395Z,87477.00
2023-04-01T09:37:58.789Z,87479.00
2023-04-01T09:38:59.369Z,87479.00
2023-04-01T09:39:58.702Z,87477.00
2023-04-01T09:40:58.636Z,87486.00
2023-04-01T09:41:58.601Z,87480.00
2023-04-01T09:42:58.564Z,87482.00
2023-04-01T09:43:59.365Z,87477.00
2023-04-01T09:44:58.613Z,87464.00
2023-04-01T09:45:58.629Z,87464.00
2023-04-01T09:46:59.360Z,87464.00
2023-04-01T09:47:58.512Z,87462.00
2023-04-01T09:48:59.361Z,87462.00
2023-04-01T09:49:58.353Z,87460.00
2023-04-01T09:50:58.866Z,87458.00
2023-04-01T09:51:58.879Z,87458.00
2023-04-01T09:52:58.333Z,87462.00
2023-04-01T09:53:58.967Z,87462.00
2023-04-01T09:54:58.285Z,87462.00
2023-04-01T09:55:58.930Z,87466.00
2023-04-01T09:56:58.290Z,87464.00
2023-04-01T09:57:58.243Z,87462.00
2023-04-01T09:58:58.207Z,87458.00
2023-04-01T09:59:58.223Z,87458.00
2023-04-01T10:00:59.880Z,87454.00
2023-04-01T10:01:58.183Z,87454.00
2023-04-01T10:02:58.185Z,87458.00
2023-04-01T10:03:58.108Z,87456.00
2023-04-01T10:04:58.116Z,87454.00
2023-04-01T10:05:58.122Z,87454.00
2023-04-01T10:06:58.088Z,87456.00
2023-04-01T10:07:58.872Z,87452.00
2023-04-01T10:08:58.024Z,87456.00
2023-04-01T10:09:58.369Z,87450.00
2023-04-01T10:10:58.029Z,87450.00
2023-04-01T10:11:58.029Z,87444.00
2023-04-01T10:12:58.001Z,87442.00
2023-04-01T10:13:58.031Z,87444.00
2023-04-01T10:14:58.091Z,87438.00
2023-04-01T10:16:02.896Z,87438.00
2023-04-01T10:16:58.884Z,87434.00
2023-04-01T10:17:57.883Z,87432.00
2023-04-01T10:18:58.371Z,87434.00
2023-04-01T10:19:57.735Z,87432.00
2023-04-01T10:20:57.644Z,87430.00
2023-04-01T10:21:57.634Z,87426.00
2023-04-01T10:22:57.531Z,87430.00
2023-04-01T10:23:57.541Z,87426.00
2023-04-01T10:24:58.359Z,87419.00
2023-04-01T10:25:57.401Z,87422.00
2023-04-01T10:26:57.313Z,87419.00
2023-04-01T10:27:57.878Z,87420.00
2023-04-01T10:28:57.229Z,87419.00
2023-04-01T10:29:57.204Z,87415.00
2023-04-01T10:30:57.247Z,87415.00
2023-04-01T10:31:57.219Z,87415.00
2023-04-01T10:32:58.897Z,87413.00
2023-04-01T10:33:57.136Z,87413.00
2023-04-01T10:34:57.035Z,87413.00
2023-04-01T10:35:57.028Z,87411.00
2023-04-01T10:36:57.873Z,87409.00
2023-04-01T10:37:56.885Z,87407.00
2023-04-01T10:38:56.871Z,87409.00
2023-04-01T10:39:56.824Z,87409.00
2023-04-01T10:40:56.832Z,87407.00
2023-04-01T10:41:56.703Z,87407.00
2023-04-01T10:42:56.642Z,87399.00
2023-04-01T10:43:56.868Z,87397.00
2023-04-01T10:44:56.611Z,87399.00
2023-04-01T10:45:56.593Z,87397.00
2023-04-01T10:46:57.415Z,87397.00
2023-04-01T10:47:56.541Z,87391.00
2023-04-01T10:48:56.468Z,87395.00
2023-04-01T10:49:56.424Z,87391.00
2023-04-01T10:50:56.981Z,87391.00
2023-04-01T10:51:56.439Z,87391.00
2023-04-01T10:52:56.426Z,87391.00
2023-04-01T10:53:56.384Z,87391.00
2023-04-01T10:54:56.418Z,87391.00
2023-04-01T10:55:56.306Z,87387.00
2023-04-01T10:56:56.297Z,87385.00
2023-04-01T10:57:56.190Z,87383.00
2023-04-01T10:58:56.159Z,87383.00
2023-04-01T10:59:56.119Z,87381.00
2023-04-01T11:00:56.225Z,87381.00
2023-04-01T11:02:10.178Z,87383.00
2023-04-01T11:02:57.091Z,87381.00
2023-04-01T11:03:56.000Z,87379.00
2023-04-01T11:04:55.856Z,87377.00
2023-04-01T11:05:55.770Z,87381.00
2023-04-01T11:06:55.666Z,87373.00
2023-04-01T11:08:05.333Z,87375.00
2023-04-01T11:08:56.549Z,87375.00
2023-04-01T11:09:55.446Z,87377.00
2023-04-01T11:10:55.415Z,87375.00
2023-04-01T11:11:55.264Z,87373.00
2023-04-01T11:12:55.184Z,87370.00
2023-04-01T11:13:57.868Z,87372.00
2023-04-01T11:14:55.022Z,87368.00
2023-04-01T11:15:55.078Z,87373.00
2023-04-01T11:16:54.821Z,87372.00
2023-04-01T11:17:54.866Z,87370.00
2023-04-01T11:18:54.644Z,87368.00
2023-04-01T11:19:54.706Z,87370.00
2023-04-01T11:20:54.476Z,87368.00
2023-04-01T11:21:54.395Z,87370.00
2023-04-01T11:22:54.267Z,87372.00
2023-04-01T11:24:04.547Z,87368.00
2023-04-01T11:24:55.369Z,87368.00
2023-04-01T11:25:54.237Z,87370.00
2023-04-01T11:26:54.281Z,87368.00
2023-04-01T11:27:54.152Z,87368.00
2023-04-01T11:28:54.147Z,87366.00
2023-04-01T11:30:00.201Z,87364.00
2023-04-01T11:30:54.858Z,87364.00
2023-04-01T11:31:54.340Z,87362.00
2023-04-01T11:32:53.708Z,87358.00
2023-04-01T11:33:53.533Z,87358.00
2023-04-01T11:34:53.503Z,87356.00
2023-04-01T11:35:53.365Z,87354.00
2023-04-01T11:36:53.243Z,87350.00
2023-04-01T11:37:53.113Z,87352.00
2023-04-01T11:38:53.052Z,87350.00
2023-04-01T11:39:53.019Z,87354.00
2023-04-01T11:40:53.026Z,87354.00
2023-04-01T11:41:52.961Z,87350.00
2023-04-01T11:42:52.924Z,87350.00
2023-04-01T11:43:52.874Z,87348.00
2023-04-01T11:44:52.819Z,87346.00